Time,TemperatureF,DewpointF,PressureIn,WindDirection,WindDirectionDegrees,WindSpeedMPH,WindSpeedGustMPH,Humidity,HourlyPrecipIn,Conditions,Clouds,dailyrainin,SolarRadiationWatts/m^2,SoftwareType,DateUTC
2013-03-11 00:02:00,39.0,22.0,-100.00,SW,215,11.0,16.0,50,-99.99,,,-99.99,-0.100000,,2013-03-11 06:02:00,
2013-03-11 00:11:00,39.0,21.0,-100.00,SW,221,11.0,17.0,49,-99.99,,,-99.99,-0.100000,,2013-03-11 06:11:00,
2013-03-11 00:21:00,39.0,21.0,-100.00,SW,218,14.0,22.0,48,-99.99,,,-99.99,-0.100000,,2013-03-11 06:21:00,
2013-03-11 00:32:00,39.0,22.0,-100.00,SSW,211,14.0,18.0,49,-99.99,,,-99.99,-0.100000,,2013-03-11 06:32:00,
2013-03-11 00:42:00,39.0,22.0,-100.00,SW,216,14.0,20.0,50,-99.99,,,-99.99,0.000000,,2013-03-11 06:42:00,
2013-03-11 00:52:00,39.0,22.0,-100.00,SW,221,14.0,20.0,49,-99.99,,,-99.99,-0.100000,,2013-03-11 06:52:00,
2013-03-11 01:01:00,39.0,22.0,-100.00,SW,215,12.0,16.0,51,-99.99,,,-99.99,-0.100000,,2013-03-11 07:01:00,
2013-03-11 01:11:00,38.0,23.0,-100.00,SW,219,13.0,18.0,53,-99.99,,,-99.99,-0.100000,,2013-03-11 07:11:00,
2013-03-11 01:21:00,39.0,22.0,-100.00,SW,224,14.0,21.0,50,-99.99,,,-99.99,-0.100000,,2013-03-11 07:21:00,
2013-03-11 01:32:00,39.0,21.0,-100.00,SW,221,13.0,20.0,48,-99.99,,,-99.99,-0.100000,,2013-03-11 07:32:00,
2013-03-11 01:41:00,39.0,21.0,-100.00,SW,218,12.0,17.0,49,-99.99,,,-99.99,0.000000,,2013-03-11 07:41:00,
2013-03-11 01:52:00,39.0,21.0,-100.00,SW,220,12.0,18.0,48,-99.99,,,-99.99,-0.100000,,2013-03-11 07:52:00,
2013-03-11 02:02:00,39.0,21.0,-100.00,SW,219,11.0,14.0,48,-99.99,,,-99.99,0.000000,,2013-03-11 08:02:00,
2013-03-11 02:11:00,39.0,22.0,-100.00,SW,221,8.0,11.0,50,-99.99,,,-99.99,-0.100000,,2013-03-11 08:11:00,
2013-03-11 02:21:00,38.0,22.0,-100.00,SSW,210,8.0,10.0,51,-99.99,,,-99.99,-0.100000,,2013-03-11 08:21:00,
2013-03-11 02:32:00,38.0,23.0,-100.00,SW,220,4.0,6.0,54,-99.99,,,-99.99,-0.100000,,2013-03-11 08:32:00,
2013-03-11 02:51:00,36.0,23.0,-100.00,SSW,210,6.0,11.0,58,-99.99,,,-99.99,-0.100000,,2013-03-11 08:51:00,
2013-03-11 03:01:00,37.0,22.0,-100.00,SW,214,10.0,16.0,54,-99.99,,,-99.99,-0.100000,,2013-03-11 09:01:00,
2013-03-11 03:11:00,37.0,22.0,-100.00,SW,230,5.0,8.0,54,-99.99,,,-99.99,-0.100000,,2013-03-11 09:11:00,
2013-03-11 03:21:00,37.0,22.0,-100.00,SW,228,6.0,10.0,54,-99.99,,,-99.99,-0.100000,,2013-03-11 09:21:00,
2013-03-11 03:32:00,36.0,23.0,-100.00,WSW,238,5.0,7.0,57,-99.99,,,-99.99,-0.100000,,2013-03-11 09:32:00,
2013-03-11 03:52:00,35.0,24.0,-100.00,South,190,6.0,8.0,62,-99.99,,,-99.99,-0.200000,,2013-03-11 09:52:00,
2013-03-11 04:02:00,34.0,24.0,-100.00,South,191,8.0,10.0,65,-99.99,,,-99.99,-0.100000,,2013-03-11 10:02:00,
2013-03-11 04:11:00,34.0,24.0,-100.00,SSW,192,11.0,12.0,67,-99.99,,,-99.99,-0.100000,,2013-03-11 10:11:00,
2013-03-11 04:21:00,34.0,24.0,-100.00,South,188,10.0,15.0,65,-99.99,,,-99.99,-0.100000,,2013-03-11 10:21:00,
2013-03-11 04:32:00,34.0,24.0,-100.00,SSW,195,11.0,12.0,64,-99.99,,,-99.99,-0.100000,,2013-03-11 10:32:00,
2013-03-11 04:41:00,35.0,23.0,-100.00,SW,216,12.0,15.0,60,-99.99,,,-99.99,-0.100000,,2013-03-11 10:41:00,
2013-03-11 04:52:00,35.0,23.0,-100.00,SW,219,13.0,17.0,58,-99.99,,,-99.99,-0.100000,,2013-03-11 10:52:00,
2013-03-11 05:01:00,35.0,22.0,-100.00,SW,219,13.0,16.0,59,-99.99,,,-99.99,-0.100000,,2013-03-11 11:01:00,
2013-03-11 05:11:00,35.0,23.0,-100.00,SW,218,14.0,18.0,60,-99.99,,,-99.99,0.000000,,2013-03-11 11:11:00,
2013-03-11 05:21:00,35.0,23.0,-100.00,SW,220,13.0,17.0,61,-99.99,,,-99.99,0.000000,,2013-03-11 11:21:00,
2013-03-11 05:32:00,35.0,23.0,-100.00,SW,223,11.0,15.0,62,-99.99,,,-99.99,-0.100000,,2013-03-11 11:32:00,
2013-03-11 05:41:00,35.0,22.0,-100.00,SW,220,12.0,16.0,60,-99.99,,,-99.99,0.000000,,2013-03-11 11:41:00,
2013-03-11 05:52:00,34.0,23.0,-100.00,SW,217,11.0,13.0,63,-99.99,,,-99.99,0.000000,,2013-03-11 11:52:00,
2013-03-11 06:01:00,34.0,23.0,-100.00,SW,218,9.0,10.0,64,-99.99,,,-99.99,0.000000,,2013-03-11 12:01:00,
2013-03-11 06:11:00,34.0,23.0,-100.00,SW,218,9.0,12.0,64,-99.99,,,-99.99,-0.100000,,2013-03-11 12:11:00,
2013-03-11 06:21:00,34.0,23.0,-100.00,SW,214,8.0,10.0,63,-99.99,,,-99.99,-0.100000,,2013-03-11 12:21:00,
2013-03-11 06:32:00,35.0,23.0,-100.00,SSW,213,8.0,11.0,61,-99.99,,,-99.99,-0.100000,,2013-03-11 12:32:00,
2013-03-11 06:42:00,35.0,23.0,-100.00,SW,216,7.0,10.0,60,-99.99,,,-99.99,-0.100000,,2013-03-11 12:42:00,
2013-03-11 06:52:00,35.0,22.0,-100.00,SW,223,6.0,8.0,59,-99.99,,,-99.99,-0.100000,,2013-03-11 12:52:00,
2013-03-11 07:01:00,35.0,22.0,-100.00,SW,220,6.0,11.0,59,-99.99,,,-99.99,-0.100000,,2013-03-11 13:01:00,
2013-03-11 07:11:00,35.0,23.0,-100.00,SSW,197,6.0,9.0,62,-99.99,,,-99.99,-0.100000,,2013-03-11 13:11:00,
2013-03-11 07:21:00,33.0,24.0,-100.00,SSW,198,9.0,11.0,67,-99.99,,,-99.99,-0.100000,,2013-03-11 13:21:00,
2013-03-11 07:32:00,35.0,23.0,-100.00,SSW,211,9.0,11.0,63,-99.99,,,-99.99,-0.100000,,2013-03-11 13:32:00,
2013-03-11 07:41:00,35.0,23.0,-100.00,SW,229,7.0,9.0,61,-99.99,,,-99.99,-0.100000,,2013-03-11 13:41:00,
2013-03-11 07:52:00,36.0,23.0,-100.00,WSW,243,6.0,8.0,59,-99.99,,,-99.99,0.000000,,2013-03-11 13:52:00,
2013-03-11 08:01:00,36.0,23.0,-100.00,SW,229,6.0,10.0,57,-99.99,,,-99.99,1.000000,,2013-03-11 14:01:00,
2013-03-11 08:11:00,36.0,23.0,-100.00,SW,232,8.0,11.0,57,-99.99,,,-99.99,1.700000,,2013-03-11 14:11:00,
2013-03-11 08:21:00,36.0,23.0,-100.00,SW,232,7.0,10.0,58,-99.99,,,-99.99,6.100000,,2013-03-11 14:21:00,
2013-03-11 08:31:00,36.0,23.0,-100.00,SW,231,7.0,11.0,59,-99.99,,,-99.99,14.300000,,2013-03-11 14:31:00,
2013-03-11 08:41:00,36.0,23.0,-100.00,SW,232,7.0,11.0,59,-99.99,,,-99.99,23.700001,,2013-03-11 14:41:00,
2013-03-11 08:52:00,36.0,24.0,-100.00,SW,235,6.0,11.0,60,-99.99,,,-99.99,31.799999,,2013-03-11 14:52:00,
2013-03-11 09:02:00,36.0,24.0,-100.00,WSW,238,6.0,11.0,60,-99.99,,,-99.99,46.900002,,2013-03-11 15:02:00,
2013-03-11 09:11:00,37.0,24.0,-100.00,SW,233,6.0,10.0,60,-99.99,,,-99.99,62.000000,,2013-03-11 15:11:00,
2013-03-11 09:21:00,37.0,24.0,-100.00,SW,227,8.0,11.0,59,-99.99,,,-99.99,75.699997,,2013-03-11 15:21:00,
2013-03-11 09:32:00,37.0,24.0,-100.00,SW,226,7.0,11.0,59,-99.99,,,-99.99,84.400002,,2013-03-11 15:32:00,
2013-03-11 09:42:00,37.0,24.0,-100.00,SW,232,7.0,12.0,59,-99.99,,,-99.99,81.500000,,2013-03-11 15:42:00,
2013-03-11 09:52:00,37.0,24.0,-100.00,SW,231,10.0,14.0,59,-99.99,,,-99.99,78.699997,,2013-03-11 15:52:00,
2013-03-11 10:02:00,38.0,25.0,-100.00,SW,225,11.0,14.0,59,-99.99,,,-99.99,142.500000,,2013-03-11 16:02:00,
2013-03-11 10:11:00,38.0,25.0,-100.00,SW,231,13.0,17.0,58,-99.99,,,-99.99,298.000000,,2013-03-11 16:11:00,
2013-03-11 10:21:00,39.0,25.0,-100.00,SW,230,14.0,19.0,57,-99.99,,,-99.99,324.100006,,2013-03-11 16:21:00,
2013-03-11 10:32:00,40.0,26.0,-100.00,SW,232,12.0,18.0,58,-99.99,,,-99.99,366.000000,,2013-03-11 16:32:00,
2013-03-11 10:42:00,40.0,27.0,-100.00,SW,235,11.0,17.0,59,-99.99,,,-99.99,376.899994,,2013-03-11 16:42:00,
2013-03-11 10:51:00,41.0,28.0,-100.00,WSW,238,12.0,17.0,59,-99.99,,,-99.99,388.200012,,2013-03-11 16:51:00,
2013-03-11 11:02:00,41.0,28.0,-100.00,WSW,242,15.0,20.0,58,-99.99,,,-99.99,442.500000,,2013-03-11 17:02:00,
2013-03-11 11:12:00,42.0,29.0,-100.00,WSW,243,15.0,20.0,58,-99.99,,,-99.99,490.600006,,2013-03-11 17:12:00,
2013-03-11 11:23:00,43.0,29.0,-100.00,WSW,247,18.0,27.0,58,-99.99,,,-99.99,350.500000,,2013-03-11 17:23:00,
2013-03-11 11:33:00,43.0,30.0,-100.00,WSW,248,19.0,25.0,59,-99.99,,,-99.99,289.200012,,2013-03-11 17:33:00,
2013-03-11 11:41:00,43.0,31.0,-100.00,WSW,242,17.0,22.0,61,-99.99,,,-99.99,436.299988,,2013-03-11 17:41:00,
2013-03-11 11:52:00,44.0,32.0,-100.00,WSW,246,17.0,23.0,61,-99.99,,,-99.99,551.099976,,2013-03-11 17:52:00,
2013-03-11 12:01:00,45.0,32.0,-100.00,WSW,247,18.0,23.0,60,-99.99,,,-99.99,602.299988,,2013-03-11 18:01:00,
2013-03-11 12:11:00,46.0,33.0,-100.00,WSW,248,18.0,24.0,60,-99.99,,,-99.99,656.599976,,2013-03-11 18:11:00,
2013-03-11 12:21:00,48.0,34.0,-100.00,WSW,251,21.0,31.0,58,-99.99,,,-99.99,662.700012,,2013-03-11 18:21:00,
2013-03-11 12:32:00,48.0,34.0,-100.00,West,261,25.0,31.0,57,-99.99,,,-99.99,653.799988,,2013-03-11 18:32:00,
2013-03-11 12:42:00,48.0,34.0,-100.00,WSW,254,20.0,27.0,57,-99.99,,,-99.99,687.700012,,2013-03-11 18:42:00,
2013-03-11 12:52:00,49.0,35.0,-100.00,West,266,22.0,29.0,58,-99.99,,,-99.99,703.900024,,2013-03-11 18:52:00,
2013-03-11 13:02:00,49.0,34.0,-100.00,WSW,256,21.0,27.0,55,-99.99,,,-99.99,517.599976,,2013-03-11 19:02:00,
2013-03-11 13:11:00,49.0,34.0,-100.00,WSW,258,24.0,32.0,54,-99.99,,,-99.99,754.200012,,2013-03-11 19:11:00,
2013-03-11 13:21:00,50.0,34.0,-100.00,West,260,20.0,28.0,54,-99.99,,,-99.99,749.700012,,2013-03-11 19:21:00,
2013-03-11 13:32:00,51.0,34.0,-100.00,West,267,23.0,29.0,53,-99.99,,,-99.99,693.099976,,2013-03-11 19:32:00,
2013-03-11 13:41:00,51.0,35.0,-100.00,West,264,21.0,29.0,53,-99.99,,,-99.99,677.700012,,2013-03-11 19:41:00,
2013-03-11 13:52:00,51.0,34.0,-100.00,West,262,24.0,29.0,52,-99.99,,,-99.99,771.599976,,2013-03-11 19:52:00,
2013-03-11 14:02:00,52.0,35.0,-100.00,West,276,22.0,28.0,53,-99.99,,,-99.99,704.500000,,2013-03-11 20:02:00,
2013-03-11 14:11:00,52.0,35.0,-100.00,West,272,19.0,27.0,53,-99.99,,,-99.99,448.299988,,2013-03-11 20:11:00,
2013-03-11 14:21:00,52.0,35.0,-100.00,West,275,19.0,24.0,52,-99.99,,,-99.99,662.799988,,2013-03-11 20:21:00,
2013-03-11 14:32:00,53.0,34.0,-100.00,West,269,22.0,29.0,49,-99.99,,,-99.99,781.799988,,2013-03-11 20:32:00,
2013-03-11 14:42:00,52.0,34.0,-100.00,West,263,19.0,23.0,49,-99.99,,,-99.99,728.900024,,2013-03-11 20:42:00,
2013-03-11 14:51:00,52.0,33.0,-100.00,WSW,253,17.0,23.0,48,-99.99,,,-99.99,596.500000,,2013-03-11 20:51:00,
2013-03-11 15:02:00,52.0,33.0,-100.00,West,263,19.0,27.0,48,-99.99,,,-99.99,495.399994,,2013-03-11 21:02:00,
2013-03-11 15:11:00,52.0,34.0,-100.00,WNW,283,19.0,24.0,50,-99.99,,,-99.99,214.000000,,2013-03-11 21:11:00,
2013-03-11 15:21:00,51.0,34.0,-100.00,West,272,17.0,24.0,50,-99.99,,,-99.99,194.000000,,2013-03-11 21:21:00,
2013-03-11 15:32:00,52.0,34.0,-100.00,West,264,19.0,27.0,50,-99.99,,,-99.99,397.299988,,2013-03-11 21:32:00,
2013-03-11 15:42:00,52.0,33.0,-100.00,West,274,19.0,24.0,49,-99.99,,,-99.99,444.000000,,2013-03-11 21:42:00,
2013-03-11 15:51:00,52.0,34.0,-100.00,WSW,257,20.0,27.0,49,-99.99,,,-99.99,499.100006,,2013-03-11 21:51:00,
2013-03-11 16:02:00,51.0,34.0,-100.00,West,272,21.0,26.0,50,-99.99,,,-99.99,270.700012,,2013-03-11 22:02:00,
2013-03-11 16:11:00,51.0,33.0,-100.00,West,266,21.0,27.0,49,-99.99,,,-99.99,277.100006,,2013-03-11 22:11:00,
2013-03-11 16:21:00,52.0,33.0,-100.00,West,270,22.0,27.0,48,-99.99,,,-99.99,434.000000,,2013-03-11 22:21:00,
2013-03-11 16:32:00,53.0,33.0,-100.00,WSW,256,18.0,26.0,46,-99.99,,,-99.99,472.700012,,2013-03-11 22:32:00,
2013-03-11 16:42:00,53.0,32.0,-100.00,WSW,257,21.0,27.0,44,-99.99,,,-99.99,517.599976,,2013-03-11 22:42:00,
2013-03-11 16:52:00,52.0,32.0,-100.00,WSW,258,22.0,27.0,47,-99.99,,,-99.99,208.399994,,2013-03-11 22:52:00,
2013-03-11 17:02:00,51.0,32.0,-100.00,WSW,256,20.0,25.0,47,-99.99,,,-99.99,246.199997,,2013-03-11 23:02:00,
2013-03-11 17:11:00,52.0,33.0,-100.00,WSW,254,21.0,29.0,47,-99.99,,,-99.99,434.200012,,2013-03-11 23:11:00,
2013-03-11 17:32:00,52.0,32.0,-100.00,WSW,256,22.0,29.0,46,-99.99,,,-99.99,359.000000,,2013-03-11 23:32:00,
2013-03-11 17:42:00,52.0,32.0,-100.00,West,260,21.0,28.0,46,-99.99,,,-99.99,323.100006,,2013-03-11 23:42:00,
2013-03-11 17:52:00,52.0,33.0,-100.00,West,263,21.0,26.0,47,-99.99,,,-99.99,276.399994,,2013-03-11 23:52:00,
2013-03-11 18:02:00,51.0,33.0,-100.00,West,266,22.0,28.0,49,-99.99,,,-99.99,252.100006,,2013-03-12 00:02:00,
2013-03-11 18:11:00,51.0,32.0,-100.00,West,259,22.0,28.0,49,-99.99,,,-99.99,206.100006,,2013-03-12 00:11:00,
2013-03-11 18:22:00,51.0,33.0,-100.00,West,260,21.0,29.0,50,-99.99,,,-99.99,183.000000,,2013-03-12 00:22:00,
2013-03-11 18:32:00,50.0,33.0,-100.00,WSW,256,21.0,29.0,51,-99.99,,,-99.99,112.500000,,2013-03-12 00:32:00,
2013-03-11 18:42:00,49.0,32.0,-100.00,West,262,23.0,28.0,50,-99.99,,,-99.99,146.000000,,2013-03-12 00:42:00,
2013-03-11 18:52:00,49.0,32.0,-100.00,WSW,250,17.0,25.0,50,-99.99,,,-99.99,112.300003,,2013-03-12 00:52:00,
2013-03-11 19:02:00,49.0,32.0,-100.00,WSW,253,16.0,25.0,51,-99.99,,,-99.99,67.800003,,2013-03-12 01:02:00,
2013-03-11 19:11:00,48.0,32.0,-100.00,WSW,247,17.0,27.0,52,-99.99,,,-99.99,50.900002,,2013-03-12 01:11:00,
2013-03-11 19:21:00,47.0,32.0,-100.00,WSW,254,17.0,24.0,54,-99.99,,,-99.99,33.200001,,2013-03-12 01:21:00,
2013-03-11 19:32:00,47.0,31.0,-100.00,West,261,19.0,24.0,54,-99.99,,,-99.99,19.600000,,2013-03-12 01:32:00,
2013-03-11 19:41:00,47.0,32.0,-100.00,West,261,19.0,25.0,55,-99.99,,,-99.99,8.900000,,2013-03-12 01:41:00,
2013-03-11 19:52:00,46.0,31.0,-100.00,WSW,256,15.0,23.0,55,-99.99,,,-99.99,1.900000,,2013-03-12 01:52:00,
2013-03-11 20:01:00,45.0,32.0,-100.00,WSW,241,11.0,17.0,58,-99.99,,,-99.99,0.500000,,2013-03-12 02:01:00,
2013-03-11 20:11:00,45.0,32.0,-100.00,SW,221,10.0,14.0,61,-99.99,,,-99.99,0.000000,,2013-03-12 02:11:00,
2013-03-11 20:21:00,44.0,33.0,-100.00,SSW,213,12.0,15.0,65,-99.99,,,-99.99,-0.100000,,2013-03-12 02:21:00,
2013-03-11 20:32:00,44.0,32.0,-100.00,SW,230,12.0,19.0,62,-99.99,,,-99.99,-0.100000,,2013-03-12 02:32:00,
2013-03-11 20:41:00,44.0,32.0,-100.00,SW,232,11.0,16.0,61,-99.99,,,-99.99,-0.100000,,2013-03-12 02:41:00,
2013-03-11 20:51:00,44.0,31.0,-100.00,SW,232,12.0,18.0,60,-99.99,,,-99.99,-0.100000,,2013-03-12 02:51:00,
2013-03-11 21:01:00,44.0,31.0,-100.00,WSW,238,12.0,17.0,60,-99.99,,,-99.99,-0.100000,,2013-03-12 03:01:00,
2013-03-11 21:11:00,43.0,31.0,-100.00,WSW,240,12.0,16.0,61,-99.99,,,-99.99,-0.100000,,2013-03-12 03:11:00,
2013-03-11 21:32:00,43.0,31.0,-100.00,SW,229,12.0,16.0,61,-99.99,,,-99.99,-0.100000,,2013-03-12 03:32:00,
2013-03-11 21:42:00,42.0,31.0,-100.00,SW,235,11.0,17.0,62,-99.99,,,-99.99,-0.100000,,2013-03-12 03:42:00,
2013-03-11 21:51:00,42.0,31.0,-100.00,SW,226,10.0,13.0,62,-99.99,,,-99.99,-0.100000,,2013-03-12 03:51:00,
2013-03-11 22:02:00,42.0,31.0,-100.00,SSW,212,11.0,15.0,64,-99.99,,,-99.99,-0.100000,,2013-03-12 04:02:00,
2013-03-11 22:12:00,42.0,31.0,-100.00,SSW,204,14.0,17.0,64,-99.99,,,-99.99,-0.100000,,2013-03-12 04:12:00,
2013-03-11 22:22:00,42.0,31.0,-100.00,SSW,203,13.0,16.0,66,-99.99,,,-99.99,-0.100000,,2013-03-12 04:22:00,
2013-03-11 22:32:00,42.0,31.0,-100.00,SSW,207,14.0,18.0,65,-99.99,,,-99.99,-0.100000,,2013-03-12 04:32:00,
2013-03-11 22:42:00,42.0,31.0,-100.00,SW,221,9.0,14.0,65,-99.99,,,-99.99,0.000000,,2013-03-12 04:42:00,
2013-03-11 22:51:00,42.0,31.0,-100.00,WSW,237,9.0,12.0,64,-99.99,,,-99.99,-0.100000,,2013-03-12 04:51:00,
2013-03-11 23:02:00,41.0,31.0,-100.00,West,270,5.0,9.0,67,-99.99,,,-99.99,-0.100000,,2013-03-12 05:02:00,
2013-03-11 23:11:00,41.0,30.0,-100.00,WSW,242,9.0,12.0,66,-99.99,,,-99.99,-0.100000,,2013-03-12 05:11:00,
2013-03-11 23:21:00,40.0,30.0,-100.00,SW,222,6.0,9.0,67,-99.99,,,-99.99,-0.100000,,2013-03-12 05:21:00,
2013-03-11 23:31:00,39.0,31.0,-100.00,SSW,211,8.0,11.0,71,-99.99,,,-99.99,-0.100000,,2013-03-12 05:31:00,
2013-03-11 23:41:00,40.0,31.0,-100.00,SSW,207,8.0,10.0,70,-99.99,,,-99.99,-0.100000,,2013-03-12 05:41:00,
2013-03-11 23:51:00,39.0,31.0,-100.00,SW,214,11.0,13.0,71,-99.99,,,-99.99,-0.100000,,2013-03-12 05:51:00,